Time;durP1;ratioP1;P1;durP2;ratioP2;P2;SDS_P1;SDS_P2;PMS_P1;PMS_P2;Temp;Humidity;BMP_temperature;BMP_pressure;BME280_temperature;BME280_humidity;BME280_pressure;Samples;Min_cycle;Max_cycle;Signal;HPM_P1;HPM_P2
2021/12/04 00:01:09;;;;;;;;;;;;;;;17.54;61.78;98506.03;3097577;28;19963;-57
2021/12/04 00:02:42;;;;;;;;;;;;;;;17.53;61.61;98502.50;3103848;28;19929;-56
2021/12/04 00:04:19;;;;;;;;;;;;;;;17.51;61.81;98496.50;3106968;28;20481;-55
2021/12/04 00:05:54;;;;;;;;;;;;;;;17.50;61.85;98492.19;3102180;28;19926;-54
2021/12/04 00:07:27;;;;;;;;;;;;;;;17.49;61.79;98495.06;3106317;28;19929;-54
2021/12/04 00:09:04;;;;;;;;;;;;;;;17.45;61.96;98489.28;3102681;28;20012;-55
2021/12/04 00:10:36;;;;;;;;;;;;;;;17.45;61.98;98497.31;3102812;28;19933;-56
2021/12/04 00:12:08;;;;;;;;;;;;;;;17.41;61.82;98490.69;3109243;28;19929;-54
2021/12/04 00:13:39;;;;;;;;;;;;;;;17.39;61.88;98487.41;3106745;28;19933;-52
2021/12/04 00:15:11;;;;;;;;;;;;;;;17.39;61.93;98490.91;3107261;28;19929;-54
2021/12/04 00:16:42;;;;;;;;;;;;;;;17.39;62.02;98482.03;3105067;28;19972;-55
2021/12/04 00:18:15;;;;;;;;;;;;;;;17.36;61.98;98483.25;3108678;28;19933;-54
2021/12/04 00:19:46;;;;;;;;;;;;;;;17.34;62.09;98481.81;3105087;28;20344;-54
2021/12/04 00:21:18;;;;;;;;;;;;;;;17.32;61.82;98475.81;3107840;28;19925;-54
2021/12/04 00:22:49;;;;;;;;;;;;;;;17.31;62.06;98479.53;3105071;28;19925;-54
2021/12/04 00:24:21;;;;;;;;;;;;;;;17.29;61.93;98482.38;3110106;28;20409;-53
2021/12/04 00:25:52;;;;;;;;;;;;;;;17.28;62.09;98487.97;3103908;28;19933;-54
2021/12/04 00:27:24;;;;;;;;;;;;;;;17.26;62.06;98492.69;3110791;28;19929;-54
2021/12/04 00:28:55;;;;;;;;;;;;;;;17.24;61.87;98495.56;3100097;28;19933;-53
2021/12/04 00:30:27;;;;;;;;;;;;;;;17.22;62.16;98491.41;3105788;28;19940;-53
2021/12/04 00:32:01;;;;;;;;;;;;;;;17.19;62.06;98498.84;3110359;28;19936;-54
2021/12/04 00:33:36;;;;;;;;;;;;;;;17.18;62.29;98489.13;3105851;28;20261;-54
2021/12/04 00:35:13;;;;;;;;;;;;;;;17.17;62.23;98502.75;3108870;28;20008;-54
2021/12/04 00:37:03;;;;;;;;;;;;;;;17.15;62.28;98513.66;3108756;28;19940;-54
2021/12/04 00:49:30;;;;;;;;;;;;;;;17.02;62.28;98502.88;3110423;28;20015;-52
2021/12/04 00:51:02;;;;;;;;;;;;;;;17.01;62.26;98485.13;3116749;28;19925;-54
2021/12/04 00:52:33;;;;;;;;;;;;;;;16.97;62.32;98486.56;3109650;28;20724;-53
2021/12/04 00:54:09;;;;;;;;;;;;;;;16.97;62.40;98494.59;3111741;28;19933;-54
2021/12/04 00:55:41;;;;;;;;;;;;;;;16.94;62.41;98490.44;3108814;28;19954;-52
2021/12/04 00:57:12;;;;;;;;;;;;;;;16.92;62.23;98489.81;3107455;28;19932;-54
2021/12/04 00:58:43;;;;;;;;;;;;;;;16.92;62.27;98486.31;3107837;28;19925;-54
2021/12/04 01:00:15;;;;;;;;;;;;;;;16.91;62.43;98481.94;3108827;28;19929;-53
2021/12/04 01:01:46;;;;;;;;;;;;;;;16.91;62.32;98474.78;3108071;28;20414;-54
2021/12/04 01:03:18;;;;;;;;;;;;;;;16.89;62.42;98478.66;3107685;28;20449;-55
2021/12/04 01:04:51;;;;;;;;;;;;;;;16.86;62.47;98476.38;3107927;28;20753;-54
2021/12/04 01:06:22;;;;;;;;;;;;;;;16.86;62.47;98481.75;3111510;28;19952;-55
2021/12/04 01:07:53;;;;;;;;;;;;;;;16.84;62.44;98492.63;3112633;28;19933;-53
2021/12/04 01:09:26;;;;;;;;;;;;;;;16.84;62.39;98499.84;3110462;28;20523;-55
2021/12/04 01:10:58;;;;;;;;;;;;;;;16.83;62.32;98507.06;3111060;28;19933;-53
2021/12/04 01:12:29;;;;;;;;;;;;;;;16.81;62.48;98489.53;3112236;28;19933;-54
2021/12/04 01:14:01;;;;;;;;;;;;;;;16.79;62.48;98491.56;3105638;28;19925;-55
2021/12/04 01:15:33;;;;;;;;;;;;;;;16.77;62.54;98490.94;3109700;28;19956;-54
2021/12/04 01:17:04;;;;;;;;;;;;;;;16.75;62.50;98489.25;3112438;28;19926;-54
2021/12/04 01:18:36;;;;;;;;;;;;;;;16.74;62.44;98484.06;3110034;28;19945;-55
2021/12/04 01:20:10;;;;;;;;;;;;;;;16.74;62.52;98492.09;3106849;28;19936;-56
2021/12/04 01:21:41;;;;;;;;;;;;;;;16.72;62.44;98489.63;3108107;28;20291;-53
2021/12/04 01:23:15;;;;;;;;;;;;;;;16.71;62.40;98487.16;3107481;28;19925;-54
2021/12/04 01:24:47;;;;;;;;;;;;;;;16.69;62.50;98483.84;3110820;28;20598;-54
2021/12/04 01:26:18;;;;;;;;;;;;;;;16.66;62.51;98487.75;3109939;28;20473;-54
2021/12/04 01:27:50;;;;;;;;;;;;;;;16.66;62.53;98476.19;3111352;28;19925;-56
2021/12/04 01:29:21;;;;;;;;;;;;;;;16.65;62.53;98471.88;3106828;28;19937;-54
2021/12/04 01:30:53;;;;;;;;;;;;;;;16.63;62.46;98465.88;3108705;28;19933;-54
2021/12/04 01:32:24;;;;;;;;;;;;;;;16.61;62.56;98471.44;3107860;28;20573;-55
2021/12/04 01:33:56;;;;;;;;;;;;;;;16.59;62.55;98468.13;3111220;28;19933;-53
2021/12/04 01:35:29;;;;;;;;;;;;;;;16.58;62.60;98466.47;3112325;28;19940;-56
2021/12/04 01:36:59;;;;;;;;;;;;;;;16.57;62.57;98470.16;3111612;28;20616;-56
2021/12/04 01:38:31;;;;;;;;;;;;;;;16.55;62.55;98469.53;3106260;28;19925;-53
2021/12/04 01:40:03;;;;;;;;;;;;;;;16.54;62.64;98459.84;3107704;28;19956;-52
2021/12/04 01:41:35;;;;;;;;;;;;;;;16.53;62.55;98452.84;3109640;28;19936;-55
2021/12/04 01:43:07;;;;;;;;;;;;;;;16.51;62.59;98454.88;3107787;28;20517;-54
2021/12/04 01:44:39;;;;;;;;;;;;;;;16.48;62.59;98452.59;3110067;28;19929;-53
2021/12/04 01:46:10;;;;;;;;;;;;;;;16.46;62.72;98439.38;3105001;28;19929;-53
2021/12/04 01:47:42;;;;;;;;;;;;;;;16.45;62.78;98439.59;3107923;28;19979;-54
2021/12/04 01:49:14;;;;;;;;;;;;;;;16.43;62.73;98439.78;3111666;28;19937;-54
2021/12/04 01:50:47;;;;;;;;;;;;;;;16.42;62.68;98437.31;3110377;28;19952;-54
2021/12/04 01:52:18;;;;;;;;;;;;;;;16.40;62.71;98442.84;3109421;28;20319;-53
2021/12/04 01:53:50;;;;;;;;;;;;;;;16.39;62.82;98438.50;3109647;28;19929;-53
2021/12/04 01:55:23;;;;;;;;;;;;;;;16.36;62.85;98443.44;3106260;28;19925;-52
2021/12/04 01:56:55;;;;;;;;;;;;;;;16.36;62.79;98448.78;3110666;28;20515;-55
2021/12/04 01:58:28;;;;;;;;;;;;;;;16.35;62.80;98441.75;3110259;28;19933;-55
2021/12/04 02:00:00;;;;;;;;;;;;;;;16.32;62.61;98442.97;3108305;28;19926;-54
2021/12/04 02:01:32;;;;;;;;;;;;;;;16.31;62.80;98450.19;3108366;28;20382;-53
2021/12/04 02:03:04;;;;;;;;;;;;;;;16.29;62.80;98446.88;3110767;28;19925;-52
2021/12/04 02:04:35;;;;;;;;;;;;;;;16.28;62.84;98450.56;3105275;28;19964;-54
2021/12/04 02:06:07;;;;;;;;;;;;;;;16.27;62.87;98451.59;3109945;28;19960;-54
2021/12/04 02:07:39;;;;;;;;;;;;;;;16.25;62.92;98447.47;3105523;28;20738;-54
2021/12/04 02:09:12;;;;;;;;;;;;;;;16.22;62.82;98443.31;3111829;28;19925;-54
2021/12/04 02:10:45;;;;;;;;;;;;;;;16.23;62.95;98444.97;3111726;28;19932;-52
2021/12/04 02:12:17;;;;;;;;;;;;;;;16.25;62.83;98452.81;3110145;28;19926;-55
2021/12/04 02:13:48;;;;;;;;;;;;;;;16.21;62.85;98444.31;3108364;28;19929;-55
2021/12/04 02:15:21;;;;;;;;;;;;;;;16.19;62.87;98449.06;3110334;28;20319;-54
2021/12/04 02:16:52;;;;;;;;;;;;;;;16.17;62.90;98445.75;3109357;28;21538;-52
2021/12/04 02:18:24;;;;;;;;;;;;;;;16.15;62.93;98434.41;3107270;28;19925;-54
2021/12/04 02:19:55;;;;;;;;;;;;;;;16.13;63.03;98433.78;3108890;28;19933;-52
2021/12/04 02:21:30;;;;;;;;;;;;;;;16.12;63.02;98431.28;3107839;28;20522;-52
2021/12/04 02:23:02;;;;;;;;;;;;;;;16.11;62.92;98437.66;3112656;28;19972;-55
2021/12/04 02:24:34;;;;;;;;;;;;;;;16.09;62.95;98436.00;3105613;28;19929;-54
2021/12/04 02:26:06;;;;;;;;;;;;;;;16.12;62.85;98437.47;3112506;28;20393;-55
2021/12/04 02:27:38;;;;;;;;;;;;;;;16.08;62.99;98441.53;3110847;28;19956;-55
2021/12/04 02:29:10;;;;;;;;;;;;;;;16.05;63.18;98439.25;3109220;28;19932;-51
2021/12/04 02:30:43;;;;;;;;;;;;;;;16.04;63.03;98432.22;3109742;28;19925;-56
2021/12/04 02:32:15;;;;;;;;;;;;;;;16.03;63.14;98433.25;3109383;28;19929;-54
2021/12/04 02:33:47;;;;;;;;;;;;;;;16.03;63.09;98431.41;3108457;28;19999;-55
2021/12/04 02:35:19;;;;;;;;;;;;;;;16.00;63.08;98428.31;3108636;28;19925;-52
2021/12/04 02:36:52;;;;;;;;;;;;;;;15.97;63.08;98424.16;3107165;28;20116;-55
2021/12/04 02:38:25;;;;;;;;;;;;;;;15.98;63.06;98424.97;3104456;28;19926;-58
2021/12/04 02:39:59;;;;;;;;;;;;;;;15.96;63.14;98422.47;3109030;28;19936;-52
2021/12/04 02:41:31;;;;;;;;;;;;;;;15.94;63.22;98418.38;3103665;28;19926;-56
2021/12/04 02:43:03;;;;;;;;;;;;;;;15.92;63.22;98410.53;3112072;28;19929;-52
2021/12/04 02:44:35;;;;;;;;;;;;;;;15.90;63.14;98415.22;3105881;28;19925;-56
2021/12/04 02:46:07;;;;;;;;;;;;;;;15.89;63.17;98407.41;3110039;28;19925;-55
2021/12/04 02:47:38;;;;;;;;;;;;;;;15.88;63.24;98408.41;3104795;28;19941;-53
2021/12/04 02:49:12;;;;;;;;;;;;;;;15.86;63.17;98405.94;3103216;28;20466;-57
2021/12/04 02:50:44;;;;;;;;;;;;;;;15.84;63.22;98406.13;3109155;28;19925;-58
2021/12/04 02:52:18;;;;;;;;;;;;;;;15.82;63.36;98399.31;3108347;28;20647;-56
2021/12/04 02:53:49;;;;;;;;;;;;;;;15.81;63.30;98403.84;3105635;28;19932;-52
2021/12/04 02:55:20;;;;;;;;;;;;;;;15.80;63.27;98401.38;3105449;28;19930;-56
2021/12/04 02:56:52;;;;;;;;;;;;;;;15.78;63.24;98404.22;3104876;28;19933;-55
2021/12/04 02:58:23;;;;;;;;;;;;;;;15.76;63.45;98400.91;3107238;28;19936;-50
2021/12/04 02:59:55;;;;;;;;;;;;;;;15.75;63.30;98407.28;3105007;28;19971;-57
2021/12/04 03:01:27;;;;;;;;;;;;;;;15.75;63.32;98404.59;3107464;28;19961;-57
2021/12/04 03:02:58;;;;;;;;;;;;;;;15.76;63.28;98400.06;3109660;28;19925;-54
2021/12/04 03:04:32;;;;;;;;;;;;;;;15.76;63.36;98406.25;3109129;28;19936;-55
2021/12/04 03:06:03;;;;;;;;;;;;;;;15.77;63.42;98407.94;3108913;28;20067;-55
2021/12/04 03:07:36;;;;;;;;;;;;;;;15.79;63.23;98405.88;3106897;28;19929;-52
2021/12/04 03:09:07;;;;;;;;;;;;;;;15.81;63.17;98397.66;3106955;28;19932;-53
2021/12/04 03:10:39;;;;;;;;;;;;;;;15.81;63.19;98393.13;3106251;28;19932;-53
2021/12/04 03:12:11;;;;;;;;;;;;;;;15.85;63.16;98396.25;3109310;28;19925;-56
2021/12/04 03:13:43;;;;;;;;;;;;;;;15.84;63.09;98386.59;3103235;28;20403;-52
2021/12/04 03:15:15;;;;;;;;;;;;;;;15.85;63.05;98394.44;3107458;28;20614;-57
2021/12/04 03:16:46;;;;;;;;;;;;;;;15.84;63.13;98392.75;3107115;28;19937;-52
2021/12/04 03:18:18;;;;;;;;;;;;;;;15.84;63.15;98395.44;3105624;28;19988;-53
2021/12/04 03:19:51;;;;;;;;;;;;;;;15.85;63.05;98399.78;3104830;28;20550;-56
2021/12/04 03:21:23;;;;;;;;;;;;;;;15.84;63.08;98392.75;3103315;28;20443;-55
2021/12/04 03:23:00;;;;;;;;;;;;;;;15.83;63.11;98396.47;3107881;28;20830;-57
2021/12/04 03:24:32;;;;;;;;;;;;;;;15.84;63.10;98399.97;3108308;28;19999;-55
2021/12/04 03:26:08;;;;;;;;;;;;;;;15.82;63.07;98392.13;3106865;28;19925;-56
2021/12/04 03:27:45;;;;;;;;;;;;;;;15.81;63.17;98393.13;3109498;28;20449;-51
2021/12/04 03:29:19;;;;;;;;;;;;;;;15.81;63.20;98390.47;3103547;28;20003;-58
2021/12/04 03:30:54;;;;;;;;;;;;;;;15.80;63.21;98388.81;3106303;28;19936;-53
2021/12/04 03:40:06;;;;;;;;;;;;;;;15.79;63.21;98389.00;3110923;28;20376;-55
2021/12/04 03:41:38;;;;;;;;;;;;;;;15.77;63.18;98378.50;3105507;28;19925;-54
2021/12/04 03:43:10;;;;;;;;;;;;;;;15.78;63.29;98374.81;3110704;28;19932;-52
2021/12/04 03:44:41;;;;;;;;;;;;;;;15.77;63.23;98375.84;3108286;28;19947;-56
2021/12/04 03:46:16;;;;;;;;;;;;;;;15.76;63.24;98374.16;3108868;28;19926;-54
2021/12/04 03:47:49;;;;;;;;;;;;;;;15.76;63.20;98368.00;3101971;28;19929;-53
2021/12/04 03:49:20;;;;;;;;;;;;;;;15.75;63.15;98377.88;3109369;28;19925;-55
2021/12/04 03:50:51;;;;;;;;;;;;;;;15.75;63.28;98377.88;3106671;28;19930;-54
2021/12/04 03:52:22;;;;;;;;;;;;;;;15.74;63.28;98376.22;3106781;28;19986;-55
2021/12/04 03:53:55;;;;;;;;;;;;;;;15.74;63.27;98389.59;3109059;28;19929;-55
2021/12/04 03:55:27;;;;;;;;;;;;;;;15.72;63.23;98378.25;3109473;28;20036;-54
2021/12/04 03:57:03;;;;;;;;;;;;;;;15.72;63.24;98374.75;3105289;28;20568;-53
2021/12/04 03:58:33;;;;;;;;;;;;;;;15.70;63.30;98368.75;3105857;28;19925;-54
2021/12/04 04:00:06;;;;;;;;;;;;;;;15.70;63.31;98372.25;3112419;28;20763;-54
2021/12/04 04:01:37;;;;;;;;;;;;;;;15.70;63.22;98374.94;3111307;28;20387;-54
2021/12/04 04:03:08;;;;;;;;;;;;;;;15.71;63.24;98367.72;3107140;28;19937;-56
2021/12/04 04:04:40;;;;;;;;;;;;;;;15.70;63.20;98371.44;3104085;28;20280;-54
2021/12/04 04:06:11;;;;;;;;;;;;;;;15.69;63.27;98369.78;3108253;28;19926;-54
2021/12/04 04:07:42;;;;;;;;;;;;;;;15.67;63.30;98361.91;3106754;28;20346;-55
2021/12/04 04:09:13;;;;;;;;;;;;;;;15.65;63.32;98364.78;3109556;28;19925;-53
2021/12/04 04:10:48;;;;;;;;;;;;;;;15.64;63.37;98360.44;3106062;28;19933;-51
2021/12/04 04:12:20;;;;;;;;;;;;;;;15.64;63.30;98360.44;3108094;28;20397;-54
2021/12/04 04:13:51;;;;;;;;;;;;;;;15.63;63.40;98356.13;3108714;28;19929;-53
2021/12/04 04:15:22;;;;;;;;;;;;;;;15.64;63.34;98364.97;3108867;28;20407;-54
2021/12/04 04:16:55;;;;;;;;;;;;;;;15.61;63.24;98360.00;3109328;28;19925;-53
2021/12/04 04:18:27;;;;;;;;;;;;;;;15.59;63.35;98360.19;3109897;28;19936;-54
2021/12/04 04:19:59;;;;;;;;;;;;;;;15.60;63.41;98359.19;3105919;28;19965;-55
2021/12/04 04:21:30;;;;;;;;;;;;;;;15.60;63.36;98358.34;3104219;28;19925;-56
2021/12/04 04:23:02;;;;;;;;;;;;;;;15.57;63.30;98359.56;3107605;28;19934;-52
2021/12/04 04:24:34;;;;;;;;;;;;;;;15.57;63.34;98361.41;3107791;28;19932;-57
2021/12/04 04:26:07;;;;;;;;;;;;;;;15.56;63.38;98365.91;3112040;28;19929;-55
2021/12/04 04:27:39;;;;;;;;;;;;;;;15.57;63.24;98358.72;3115526;28;19936;-55
2021/12/04 04:29:10;;;;;;;;;;;;;;;15.54;63.42;98357.25;3109030;28;19925;-52
2021/12/04 04:30:42;;;;;;;;;;;;;;;15.54;63.41;98364.47;3108329;28;19952;-54
2021/12/04 04:32:14;;;;;;;;;;;;;;;15.55;63.31;98368.81;3109454;28;20812;-55
2021/12/04 04:33:45;;;;;;;;;;;;;;;15.55;63.53;98368.81;3108511;28;19929;-52
2021/12/04 04:35:18;;;;;;;;;;;;;;;15.51;63.35;98360.31;3112441;28;19940;-54
2021/12/04 04:37:03;;;;;;;;;;;;;;;15.51;63.38;98368.34;3114341;28;20031;-54
2021/12/04 04:38:43;;;;;;;;;;;;;;;15.49;63.39;98362.38;3106475;28;20016;-54
2021/12/04 04:58:51;;;;;;;;;;;;;;;15.36;63.44;98363.03;3108538;28;19929;-55
2021/12/04 05:02:26;;;;;;;;;;;;;;;15.33;63.66;98384.81;3109039;28;19929;-52
2021/12/04 05:11:17;;;;;;;;;;;;;;;15.42;63.51;98381.00;3118295;28;20549;-54
2021/12/04 05:12:50;;;;;;;;;;;;;;;15.52;63.26;98377.19;3111134;28;19925;-53
2021/12/04 05:14:23;;;;;;;;;;;;;;;15.59;63.25;98386.94;3110543;28;20414;-52
2021/12/04 05:15:57;;;;;;;;;;;;;;;15.66;63.13;98389.69;3107963;28;19933;-53
2021/12/04 05:17:41;;;;;;;;;;;;;;;15.73;63.05;98379.91;3109570;28;19933;-54
2021/12/04 05:19:25;;;;;;;;;;;;;;;15.80;62.95;98382.66;3105435;28;19996;-54
2021/12/04 05:21:04;;;;;;;;;;;;;;;15.88;62.76;98382.53;3107139;28;19943;-54
2021/12/04 05:22:36;;;;;;;;;;;;;;;15.94;62.75;98370.22;3106522;28;19995;-53
2021/12/04 05:24:07;;;;;;;;;;;;;;;15.99;62.69;98373.97;3111670;28;20595;-54
2021/12/04 05:25:38;;;;;;;;;;;;;;;16.06;62.55;98382.88;3103985;28;19933;-54
2021/12/04 05:27:10;;;;;;;;;;;;;;;16.11;62.56;98382.31;3108034;28;19979;-54
2021/12/04 05:28:41;;;;;;;;;;;;;;;16.15;62.45;98362.16;3108207;28;19925;-53
2021/12/04 05:30:13;;;;;;;;;;;;;;;16.20;62.36;98365.06;3106916;28;19940;-55
2021/12/04 05:31:45;;;;;;;;;;;;;;;16.26;62.46;98364.28;3108439;28;20305;-52
2021/12/04 05:33:17;;;;;;;;;;;;;;;16.33;62.32;98359.00;3107306;28;19933;-56
2021/12/04 05:34:48;;;;;;;;;;;;;;;16.37;62.26;98360.25;3107338;28;19933;-55
2021/12/04 05:36:20;;;;;;;;;;;;;;;16.40;62.19;98362.53;3109155;28;19932;-55
2021/12/04 05:37:51;;;;;;;;;;;;;;;16.45;62.16;98361.97;3109665;28;19968;-53
2021/12/04 05:39:22;;;;;;;;;;;;;;;16.50;62.08;98367.56;3109240;28;19929;-54
2021/12/04 05:40:54;;;;;;;;;;;;;;;16.55;61.98;98373.16;3112931;28;19940;-55
2021/12/04 05:42:25;;;;;;;;;;;;;;;16.60;61.97;98362.66;3106207;28;20626;-54
2021/12/04 05:43:59;;;;;;;;;;;;;;;16.65;61.91;98362.06;3107073;28;19929;-54
2021/12/04 05:45:37;;;;;;;;;;;;;;;16.69;61.83;98364.16;3109073;28;20059;-54
2021/12/04 05:47:15;;;;;;;;;;;;;;;16.73;61.91;98359.25;3115820;28;20015;-53
2021/12/04 05:48:50;;;;;;;;;;;;;;;16.75;61.89;98358.03;3110230;28;19936;-54
2021/12/04 05:50:37;;;;;;;;;;;;;;;16.82;61.77;98357.25;3104788;28;20048;-52
2021/12/04 05:52:17;;;;;;;;;;;;;;;16.82;61.71;98352.72;3115412;28;19960;-52
2021/12/04 05:53:57;;;;;;;;;;;;;;;16.86;61.75;98358.53;3109885;28;20101;-54
2021/12/04 05:55:31;;;;;;;;;;;;;;;16.88;61.57;98356.44;3109225;28;20167;-52
2021/12/04 05:57:03;;;;;;;;;;;;;;;16.90;61.68;98354.41;3108864;28;19929;-53
2021/12/04 05:58:34;;;;;;;;;;;;;;;16.91;61.75;98361.41;3108239;28;20449;-54
2021/12/04 06:00:07;;;;;;;;;;;;;;;16.92;61.67;98349.69;3106147;28;19929;-54
2021/12/04 06:01:40;;;;;;;;;;;;;;;16.93;61.62;98351.31;3103048;28;19930;-54
2021/12/04 06:03:12;;;;;;;;;;;;;;;16.95;61.60;98351.97;3103886;28;20538;-55
2021/12/04 06:04:43;;;;;;;;;;;;;;;16.95;61.56;98351.97;3107237;28;19937;-53
2021/12/04 06:06:15;;;;;;;;;;;;;;;16.97;61.59;98341.88;3112202;28;19929;-55
2021/12/04 06:07:47;;;;;;;;;;;;;;;16.97;61.64;98345.38;3104560;28;19925;-55
2021/12/04 06:09:18;;;;;;;;;;;;;;;16.98;61.57;98349.69;3109528;28;19929;-54
2021/12/04 06:10:50;;;;;;;;;;;;;;;16.98;61.70;98349.69;3109863;28;19926;-55
2021/12/04 06:12:22;;;;;;;;;;;;;;;16.99;61.64;98358.56;3109135;28;20446;-53
2021/12/04 06:13:53;;;;;;;;;;;;;;;17.01;61.64;98353.00;3109201;28;19925;-55
2021/12/04 06:15:25;;;;;;;;;;;;;;;17.01;61.56;98356.50;3108925;28;19928;-54
2021/12/04 06:16:58;;;;;;;;;;;;;;;16.99;61.64;98350.53;3109777;28;19979;-55
2021/12/04 06:18:31;;;;;;;;;;;;;;;17.01;61.65;98350.34;3110355;28;19925;-55
2021/12/04 06:23:41;;;;;;;;;;;;;;;17.00;61.65;98352.19;3107625;28;19960;-55
2021/12/04 06:25:14;;;;;;;;;;;;;;;17.00;61.50;98352.19;3103012;28;19929;-53
2021/12/04 06:26:46;;;;;;;;;;;;;;;17.01;61.68;98351.16;3111929;28;20512;-55
2021/12/04 06:28:17;;;;;;;;;;;;;;;17.00;61.60;98352.19;3110486;28;19929;-55
2021/12/04 06:29:49;;;;;;;;;;;;;;;17.00;61.60;98348.69;3110487;28;20046;-51
2021/12/04 06:31:21;;;;;;;;;;;;;;;17.00;61.60;98346.00;3105950;28;19960;-53
2021/12/04 06:32:54;;;;;;;;;;;;;;;16.98;61.58;98338.16;3109981;28;19936;-54
2021/12/04 06:34:26;;;;;;;;;;;;;;;16.97;61.65;98344.56;3108868;28;19929;-53
2021/12/04 06:35:57;;;;;;;;;;;;;;;16.98;61.60;98340.84;3109619;28;19933;-52
2021/12/04 06:37:29;;;;;;;;;;;;;;;16.98;61.59;98343.53;3110749;28;20413;-53
2021/12/04 06:39:01;;;;;;;;;;;;;;;16.98;61.58;98346.19;3106790;28;19925;-54
2021/12/04 06:40:32;;;;;;;;;;;;;;;16.97;61.79;98350.75;3104809;28;20318;-53
2021/12/04 06:42:04;;;;;;;;;;;;;;;16.97;61.54;98349.91;3116665;28;19948;-53
2021/12/04 06:43:37;;;;;;;;;;;;;;;17.01;61.60;98355.69;3108284;28;20003;-55
2021/12/04 06:45:09;;;;;;;;;;;;;;;17.00;61.51;98354.88;3109385;28;19933;-55
2021/12/04 06:46:41;;;;;;;;;;;;;;;17.01;61.57;98356.50;3107295;28;19940;-55
2021/12/04 06:48:19;;;;;;;;;;;;;;;17.04;61.46;98356.09;3108299;28;19957;-55
2021/12/04 06:49:53;;;;;;;;;;;;;;;17.06;61.45;98356.75;3109005;28;19929;-56
2021/12/04 06:51:27;;;;;;;;;;;;;;;17.08;61.44;98351.19;3109468;28;19979;-53
2021/12/04 06:53:03;;;;;;;;;;;;;;;17.09;61.53;98347.47;3109621;28;19956;-53
2021/12/04 06:54:37;;;;;;;;;;;;;;;17.10;61.43;98347.25;3109191;28;19926;-54
2021/12/04 06:56:11;;;;;;;;;;;;;;;17.12;61.51;98347.06;3109722;28;19929;-54
2021/12/04 06:57:44;;;;;;;;;;;;;;;17.15;61.28;98344.81;3108650;28;19929;-54
2021/12/04 06:59:18;;;;;;;;;;;;;;;17.13;61.28;98333.50;3108929;28;19929;-56
2021/12/04 07:00:50;;;;;;;;;;;;;;;17.16;61.38;98335.75;3108452;28;19964;-54
2021/12/04 07:02:21;;;;;;;;;;;;;;;17.18;61.33;98336.38;3107477;28;19936;-55
2021/12/04 07:03:54;;;;;;;;;;;;;;;17.19;61.35;98337.22;3109344;28;19952;-51
2021/12/04 07:05:26;;;;;;;;;;;;;;;17.21;61.35;98337.81;3104281;28;19936;-55
2021/12/04 07:06:57;;;;;;;;;;;;;;;17.23;61.24;98343.00;3110507;28;19968;-54
2021/12/04 07:08:29;;;;;;;;;;;;;;;17.24;61.29;98334.72;3111838;28;19948;-52
2021/12/04 07:10:01;;;;;;;;;;;;;;;17.25;61.11;98341.75;3107531;28;19964;-52
2021/12/04 07:11:32;;;;;;;;;;;;;;;17.28;61.34;98335.19;3109412;28;20441;-55
2021/12/04 07:13:04;;;;;;;;;;;;;;;17.29;61.07;98339.50;3105638;28;20454;-54
2021/12/04 07:14:36;;;;;;;;;;;;;;;17.30;61.16;98333.09;3110797;28;19955;-54
2021/12/04 07:16:08;;;;;;;;;;;;;;;17.32;61.14;98325.69;3109339;28;20010;-54
2021/12/04 07:17:40;;;;;;;;;;;;;;;17.33;61.16;98322.81;3107884;28;19936;-54
2021/12/04 07:19:13;;;;;;;;;;;;;;;17.35;61.18;98314.56;3109412;28;19926;-54
2021/12/04 07:20:43;;;;;;;;;;;;;;;17.37;61.13;98315.19;3108704;28;20016;-55
2021/12/04 07:22:15;;;;;;;;;;;;;;;17.39;61.14;98315.81;3110088;28;19925;-54
2021/12/04 07:23:46;;;;;;;;;;;;;;;17.42;60.95;98323.44;3109347;28;19940;-53
2021/12/04 07:25:17;;;;;;;;;;;;;;;17.42;61.08;98321.59;3109188;28;19929;-53
2021/12/04 07:26:49;;;;;;;;;;;;;;;17.42;61.10;98321.59;3107259;28;19932;-56
2021/12/04 07:28:20;;;;;;;;;;;;;;;17.46;60.92;98324.69;3110119;28;19929;-54
2021/12/04 07:29:52;;;;;;;;;;;;;;;17.45;60.97;98325.72;3106489;28;20101;-56
2021/12/04 07:31:23;;;;;;;;;;;;;;;17.46;61.05;98324.69;3106113;28;19929;-54
2021/12/04 07:32:55;;;;;;;;;;;;;;;17.46;61.03;98324.69;3106092;28;19944;-49
2021/12/04 07:34:28;;;;;;;;;;;;;;;17.46;60.93;98332.72;3109046;28;20466;-56
2021/12/04 07:36:00;;;;;;;;;;;;;;;17.46;61.12;98324.69;3109176;28;20434;-57
2021/12/04 07:37:32;;;;;;;;;;;;;;;17.46;61.03;98332.72;3108642;28;19929;-55
2021/12/04 07:39:04;;;;;;;;;;;;;;;17.46;61.05;98330.03;3102650;28;19929;-56
2021/12/04 07:40:35;;;;;;;;;;;;;;;17.46;61.02;98323.88;3103133;28;19929;-56
2021/12/04 07:42:07;;;;;;;;;;;;;;;17.46;60.95;98332.72;3110013;28;19932;-57
2021/12/04 07:43:38;;;;;;;;;;;;;;;17.45;61.01;98333.78;3109334;28;19929;-54
2021/12/04 07:45:10;;;;;;;;;;;;;;;17.45;60.98;98332.94;3107191;28;19933;-53
2021/12/04 07:46:42;;;;;;;;;;;;;;;17.42;60.97;98328.81;3110520;28;20056;-52
2021/12/04 07:48:14;;;;;;;;;;;;;;;17.43;61.16;98335.81;3110158;28;19933;-56
2021/12/04 07:49:47;;;;;;;;;;;;;;;17.41;61.02;98325.31;3109664;28;19929;-57
2021/12/04 07:51:18;;;;;;;;;;;;;;;17.42;61.01;98323.44;3109184;28;20480;-49
2021/12/04 07:52:50;;;;;;;;;;;;;;;17.41;60.96;98324.47;3108080;28;19940;-56
2021/12/04 07:54:22;;;;;;;;;;;;;;;17.39;61.04;98319.31;3110628;28;19929;-57
2021/12/04 07:55:53;;;;;;;;;;;;;;;17.38;60.93;98320.38;3109544;28;20461;-53
2021/12/04 07:57:26;;;;;;;;;;;;;;;17.37;61.13;98315.19;3105806;28;19929;-55
2021/12/04 07:58:58;;;;;;;;;;;;;;;17.36;61.02;98311.69;3111889;28;20621;-55
2021/12/04 08:00:30;;;;;;;;;;;;;;;17.36;61.16;98308.19;3109770;28;20296;-55
2021/12/04 08:02:01;;;;;;;;;;;;;;;17.35;61.12;98309.19;3108535;28;19936;-50
2021/12/04 08:03:33;;;;;;;;;;;;;;;17.34;61.28;98312.91;3110082;28;20432;-55
2021/12/04 08:05:07;;;;;;;;;;;;;;;17.33;61.07;98322.00;3117372;28;19980;-55
2021/12/04 08:06:38;;;;;;;;;;;;;;;17.31;61.18;98319.50;3112605;28;20644;-53
2021/12/04 08:08:10;;;;;;;;;;;;;;;17.29;61.18;98313.50;3110104;28;19937;-55
2021/12/04 08:09:42;;;;;;;;;;;;;;;17.29;61.13;98321.56;3110676;28;20607;-54
2021/12/04 08:11:13;;;;;;;;;;;;;;;17.28;61.24;98316.41;3111340;28;19951;-52
2021/12/04 08:12:45;;;;;;;;;;;;;;;17.27;61.14;98317.44;3112657;28;20308;-56
2021/12/04 08:14:17;;;;;;;;;;;;;;;17.23;61.24;98318.88;3106258;28;19933;-55
2021/12/04 08:15:48;;;;;;;;;;;;;;;17.21;61.27;98319.06;3107124;28;19928;-55
2021/12/04 08:17:20;;;;;;;;;;;;;;;17.21;61.20;98321.75;3110801;28;20387;-57
2021/12/04 08:18:51;;;;;;;;;;;;;;;17.19;61.33;98330.00;3109040;28;19929;-54
2021/12/04 08:20:25;;;;;;;;;;;;;;;17.18;61.27;98328.31;3111891;28;19925;-54
2021/12/04 08:21:57;;;;;;;;;;;;;;;17.17;61.28;98328.53;3113068;28;19940;-55
2021/12/04 08:23:28;;;;;;;;;;;;;;;17.13;61.43;98328.13;3106826;28;19979;-51
2021/12/04 08:25:00;;;;;;;;;;;;;;;17.13;61.26;98338.00;3107039;28;19964;-53
2021/12/04 08:26:31;;;;;;;;;;;;;;;17.11;61.33;98343.56;3112979;28;20307;-53
2021/12/04 08:28:03;;;;;;;;;;;;;;;17.10;61.29;98341.09;3109748;28;19929;-54
2021/12/04 08:29:35;;;;;;;;;;;;;;;17.08;61.44;98340.47;3109195;28;19926;-56
2021/12/04 08:31:06;;;;;;;;;;;;;;;17.06;61.54;98337.16;3107404;28;19929;-56
2021/12/04 08:32:38;;;;;;;;;;;;;;;17.04;61.35;98339.22;3111955;28;19933;-58
2021/12/04 08:34:10;;;;;;;;;;;;;;;17.03;61.47;98345.59;3107955;28;19933;-55
2021/12/04 08:35:44;;;;;;;;;;;;;;;17.01;61.42;98347.66;3110379;28;20028;-53
2021/12/04 08:37:15;;;;;;;;;;;;;;;17.00;61.40;98338.78;3112960;28;19952;-55
2021/12/04 08:38:47;;;;;;;;;;;;;;;16.98;61.58;98349.69;3108590;28;19925;-58
2021/12/04 08:40:19;;;;;;;;;;;;;;;16.97;61.50;98344.56;3107158;28;19933;-57
2021/12/04 08:41:50;;;;;;;;;;;;;;;16.94;61.53;98347.63;3108099;28;20584;-56
2021/12/04 08:43:22;;;;;;;;;;;;;;;16.93;61.54;98337.94;3109558;28;20446;-53
2021/12/04 08:44:54;;;;;;;;;;;;;;;16.92;61.40;98347.00;3108702;28;20362;-55
2021/12/04 08:46:25;;;;;;;;;;;;;;;16.91;61.52;98345.34;3103655;28;19929;-53
2021/12/04 08:47:57;;;;;;;;;;;;;;;16.88;61.52;98351.94;3107807;28;19933;-56
2021/12/04 08:49:31;;;;;;;;;;;;;;;16.87;61.66;98357.47;3109354;28;20466;-58
2021/12/04 08:51:05;;;;;;;;;;;;;;;16.85;61.57;98351.50;3111171;28;19926;-53
2021/12/04 08:52:37;;;;;;;;;;;;;;;16.81;61.47;98347.56;3110618;28;19929;-51